sensor_id;sensor_type;location;lat;lon;timestamp;P1;durP1;ratioP1;P2;durP2;ratioP2
71154;SDS011;59375;53.216;5.728;2022-10-30T00:00:38;21.27;;;11.68;;
71154;SDS011;59375;53.216;5.728;2022-10-30T00:03:05;23.77;;;11.18;;
71154;SDS011;59375;53.216;5.728;2022-10-30T00:05:30;19.10;;;11.18;;
71154;SDS011;59375;53.216;5.728;2022-10-30T00:07:56;17.65;;;11.05;;
71154;SDS011;59375;53.216;5.728;2022-10-30T00:10:23;21.45;;;11.55;;
71154;SDS011;59375;53.216;5.728;2022-10-30T00:12:49;23.70;;;12.35;;
71154;SDS011;59375;53.216;5.728;2022-10-30T00:15:15;22.70;;;11.32;;
71154;SDS011;59375;53.216;5.728;2022-10-30T00:17:41;22.10;;;12.32;;
71154;SDS011;59375;53.216;5.728;2022-10-30T00:20:06;22.83;;;11.82;;
71154;SDS011;59375;53.216;5.728;2022-10-30T00:22:34;25.55;;;12.88;;
71154;SDS011;59375;53.216;5.728;2022-10-30T00:25:00;21.52;;;11.80;;
71154;SDS011;59375;53.216;5.728;2022-10-30T00:27:26;22.20;;;11.75;;
71154;SDS011;59375;53.216;5.728;2022-10-30T00:29:52;24.45;;;11.70;;
71154;SDS011;59375;53.216;5.728;2022-10-30T00:32:17;21.80;;;11.38;;
71154;SDS011;59375;53.216;5.728;2022-10-30T00:34:43;20.48;;;11.55;;
71154;SDS011;59375;53.216;5.728;2022-10-30T00:37:08;21.10;;;11.43;;
71154;SDS011;59375;53.216;5.728;2022-10-30T00:39:34;24.38;;;11.43;;
71154;SDS011;59375;53.216;5.728;2022-10-30T00:41:59;24.58;;;11.27;;
71154;SDS011;59375;53.216;5.728;2022-10-30T00:44:32;19.70;;;11.32;;
71154;SDS011;59375;53.216;5.728;2022-10-30T00:47:12;19.83;;;11.27;;
71154;SDS011;59375;53.216;5.728;2022-10-30T00:50:14;20.05;;;11.07;;
71154;SDS011;59375;53.216;5.728;2022-10-30T00:52:48;27.75;;;11.50;;
71154;SDS011;59375;53.216;5.728;2022-10-30T00:55:25;21.83;;;10.98;;
71154;SDS011;59375;53.216;5.728;2022-10-30T00:57:54;21.83;;;10.93;;
71154;SDS011;59375;53.216;5.728;2022-10-30T01:00:21;21.98;;;11.90;;
71154;SDS011;59375;53.216;5.728;2022-10-30T01:02:50;19.95;;;10.90;;
71154;SDS011;59375;53.216;5.728;2022-10-30T01:05:17;24.70;;;11.82;;
71154;SDS011;59375;53.216;5.728;2022-10-30T01:07:45;22.67;;;10.77;;
71154;SDS011;59375;53.216;5.728;2022-10-30T01:10:11;20.25;;;11.40;;
71154;SDS011;59375;53.216;5.728;2022-10-30T01:12:37;21.63;;;11.13;;
71154;SDS011;59375;53.216;5.728;2022-10-30T01:15:04;21.98;;;10.90;;
71154;SDS011;59375;53.216;5.728;2022-10-30T01:23:08;19.27;;;11.00;;
71154;SDS011;59375;53.216;5.728;2022-10-30T01:28:34;18.63;;;10.70;;
71154;SDS011;59375;53.216;5.728;2022-10-30T01:39:14;21.23;;;12.32;;
71154;SDS011;59375;53.216;5.728;2022-10-30T01:41:44;18.55;;;11.10;;
71154;SDS011;59375;53.216;5.728;2022-10-30T01:44:13;23.23;;;11.52;;
71154;SDS011;59375;53.216;5.728;2022-10-30T01:46:59;22.67;;;11.38;;
71154;SDS011;59375;53.216;5.728;2022-10-30T01:52:17;18.98;;;10.73;;
71154;SDS011;59375;53.216;5.728;2022-10-30T01:54:57;25.27;;;11.93;;
71154;SDS011;59375;53.216;5.728;2022-10-30T01:57:48;24.38;;;11.73;;
71154;SDS011;59375;53.216;5.728;2022-10-30T02:00:19;24.98;;;11.52;;
71154;SDS011;59375;53.216;5.728;2022-10-30T02:02:45;22.70;;;11.70;;
71154;SDS011;59375;53.216;5.728;2022-10-30T02:05:16;22.35;;;10.95;;
71154;SDS011;59375;53.216;5.728;2022-10-30T02:07:50;21.70;;;11.77;;
71154;SDS011;59375;53.216;5.728;2022-10-30T02:10:16;19.90;;;10.80;;
71154;SDS011;59375;53.216;5.728;2022-10-30T02:12:41;19.70;;;11.30;;
71154;SDS011;59375;53.216;5.728;2022-10-30T02:15:07;20.15;;;11.70;;
71154;SDS011;59375;53.216;5.728;2022-10-30T02:17:34;21.63;;;11.60;;
71154;SDS011;59375;53.216;5.728;2022-10-30T02:19:59;23.50;;;11.55;;
71154;SDS011;59375;53.216;5.728;2022-10-30T02:22:25;19.77;;;11.10;;
71154;SDS011;59375;53.216;5.728;2022-10-30T02:24:50;21.27;;;11.27;;
71154;SDS011;59375;53.216;5.728;2022-10-30T02:27:16;23.30;;;12.15;;
71154;SDS011;59375;53.216;5.728;2022-10-30T02:29:41;25.30;;;11.50;;
71154;SDS011;59375;53.216;5.728;2022-10-30T02:32:07;24.27;;;11.80;;
71154;SDS011;59375;53.216;5.728;2022-10-30T02:34:32;21.67;;;11.27;;
71154;SDS011;59375;53.216;5.728;2022-10-30T02:36:58;21.10;;;11.35;;
71154;SDS011;59375;53.216;5.728;2022-10-30T02:39:23;25.58;;;11.50;;
71154;SDS011;59375;53.216;5.728;2022-10-30T02:41:49;17.02;;;11.25;;
71154;SDS011;59375;53.216;5.728;2022-10-30T02:44:14;21.45;;;11.32;;
71154;SDS011;59375;53.216;5.728;2022-10-30T02:46:40;22.58;;;11.30;;
71154;SDS011;59375;53.216;5.728;2022-10-30T02:49:05;27.42;;;11.90;;
71154;SDS011;59375;53.216;5.728;2022-10-30T02:51:31;22.02;;;11.55;;
71154;SDS011;59375;53.216;5.728;2022-10-30T02:54:00;25.55;;;11.88;;
71154;SDS011;59375;53.216;5.728;2022-10-30T02:56:25;20.95;;;11.48;;
71154;SDS011;59375;53.216;5.728;2022-10-30T02:58:51;20.17;;;11.13;;
71154;SDS011;59375;53.216;5.728;2022-10-30T03:01:17;23.40;;;11.55;;
71154;SDS011;59375;53.216;5.728;2022-10-30T03:03:44;21.60;;;11.15;;
71154;SDS011;59375;53.216;5.728;2022-10-30T03:06:11;19.77;;;11.70;;
71154;SDS011;59375;53.216;5.728;2022-10-30T03:08:39;20.52;;;11.13;;
71154;SDS011;59375;53.216;5.728;2022-10-30T03:11:10;22.52;;;11.48;;
71154;SDS011;59375;53.216;5.728;2022-10-30T03:13:37;23.67;;;11.00;;
71154;SDS011;59375;53.216;5.728;2022-10-30T03:16:26;20.17;;;11.38;;
71154;SDS011;59375;53.216;5.728;2022-10-30T03:18:53;22.20;;;11.63;;
71154;SDS011;59375;53.216;5.728;2022-10-30T03:21:20;23.15;;;11.50;;
71154;SDS011;59375;53.216;5.728;2022-10-30T03:23:48;27.05;;;11.95;;
71154;SDS011;59375;53.216;5.728;2022-10-30T03:26:16;24.55;;;11.55;;
71154;SDS011;59375;53.216;5.728;2022-10-30T03:28:42;22.45;;;11.70;;
71154;SDS011;59375;53.216;5.728;2022-10-30T03:31:09;19.35;;;12.00;;
71154;SDS011;59375;53.216;5.728;2022-10-30T03:33:36;21.13;;;11.13;;
71154;SDS011;59375;53.216;5.728;2022-10-30T03:36:03;20.85;;;11.95;;
71154;SDS011;59375;53.216;5.728;2022-10-30T03:38:30;21.92;;;12.02;;
71154;SDS011;59375;53.216;5.728;2022-10-30T03:40:55;25.10;;;12.02;;
71154;SDS011;59375;53.216;5.728;2022-10-30T03:43:21;21.65;;;11.57;;
71154;SDS011;59375;53.216;5.728;2022-10-30T03:45:51;22.00;;;11.63;;
71154;SDS011;59375;53.216;5.728;2022-10-30T03:48:18;20.33;;;11.82;;
71154;SDS011;59375;53.216;5.728;2022-10-30T03:50:46;22.80;;;11.40;;
71154;SDS011;59375;53.216;5.728;2022-10-30T03:53:12;19.50;;;11.10;;
71154;SDS011;59375;53.216;5.728;2022-10-30T03:55:37;27.55;;;13.45;;
71154;SDS011;59375;53.216;5.728;2022-10-30T03:58:03;20.85;;;12.45;;
71154;SDS011;59375;53.216;5.728;2022-10-30T04:00:30;21.00;;;11.32;;
71154;SDS011;59375;53.216;5.728;2022-10-30T04:02:57;22.92;;;12.23;;
71154;SDS011;59375;53.216;5.728;2022-10-30T04:05:22;22.40;;;11.65;;
71154;SDS011;59375;53.216;5.728;2022-10-30T04:07:53;23.73;;;11.55;;
71154;SDS011;59375;53.216;5.728;2022-10-30T04:10:23;21.48;;;11.88;;
71154;SDS011;59375;53.216;5.728;2022-10-30T04:12:49;24.67;;;12.32;;
71154;SDS011;59375;53.216;5.728;2022-10-30T04:15:15;22.08;;;12.20;;
71154;SDS011;59375;53.216;5.728;2022-10-30T04:17:46;21.88;;;12.23;;
71154;SDS011;59375;53.216;5.728;2022-10-30T04:20:13;24.73;;;12.37;;
71154;SDS011;59375;53.216;5.728;2022-10-30T04:22:38;24.48;;;12.70;;
71154;SDS011;59375;53.216;5.728;2022-10-30T04:25:04;23.35;;;12.90;;
71154;SDS011;59375;53.216;5.728;2022-10-30T04:27:30;25.60;;;12.90;;
71154;SDS011;59375;53.216;5.728;2022-10-30T04:29:55;24.17;;;13.25;;
71154;SDS011;59375;53.216;5.728;2022-10-30T04:32:21;24.98;;;13.05;;
71154;SDS011;59375;53.216;5.728;2022-10-30T04:34:46;23.25;;;13.23;;
71154;SDS011;59375;53.216;5.728;2022-10-30T04:37:12;22.83;;;11.90;;
71154;SDS011;59375;53.216;5.728;2022-10-30T04:39:37;27.02;;;12.90;;
71154;SDS011;59375;53.216;5.728;2022-10-30T04:42:03;26.25;;;14.35;;
71154;SDS011;59375;53.216;5.728;2022-10-30T04:44:28;22.67;;;12.55;;
71154;SDS011;59375;53.216;5.728;2022-10-30T04:46:54;27.55;;;13.40;;
71154;SDS011;59375;53.216;5.728;2022-10-30T04:49:19;21.88;;;12.57;;
71154;SDS011;59375;53.216;5.728;2022-10-30T04:51:45;24.05;;;13.40;;
71154;SDS011;59375;53.216;5.728;2022-10-30T04:54:12;26.83;;;13.55;;
71154;SDS011;59375;53.216;5.728;2022-10-30T04:56:37;20.58;;;12.15;;
71154;SDS011;59375;53.216;5.728;2022-10-30T04:59:03;22.35;;;13.57;;
71154;SDS011;59375;53.216;5.728;2022-10-30T05:01:28;28.90;;;13.90;;
71154;SDS011;59375;53.216;5.728;2022-10-30T05:03:54;24.55;;;13.60;;
71154;SDS011;59375;53.216;5.728;2022-10-30T05:06:25;23.80;;;12.45;;
71154;SDS011;59375;53.216;5.728;2022-10-30T05:08:54;23.33;;;14.35;;
71154;SDS011;59375;53.216;5.728;2022-10-30T05:11:20;26.23;;;13.93;;
71154;SDS011;59375;53.216;5.728;2022-10-30T05:13:46;24.52;;;13.50;;
71154;SDS011;59375;53.216;5.728;2022-10-30T05:16:11;22.17;;;12.55;;
71154;SDS011;59375;53.216;5.728;2022-10-30T05:18:37;25.02;;;13.52;;
71154;SDS011;59375;53.216;5.728;2022-10-30T05:21:02;25.98;;;13.20;;
71154;SDS011;59375;53.216;5.728;2022-10-30T05:23:28;25.60;;;13.65;;
71154;SDS011;59375;53.216;5.728;2022-10-30T05:25:53;22.23;;;13.63;;
71154;SDS011;59375;53.216;5.728;2022-10-30T05:28:19;26.30;;;12.98;;
71154;SDS011;59375;53.216;5.728;2022-10-30T05:30:44;25.00;;;13.70;;
71154;SDS011;59375;53.216;5.728;2022-10-30T05:33:10;24.33;;;13.43;;
71154;SDS011;59375;53.216;5.728;2022-10-30T05:35:36;28.05;;;13.43;;
71154;SDS011;59375;53.216;5.728;2022-10-30T05:38:03;24.08;;;12.25;;
71154;SDS011;59375;53.216;5.728;2022-10-30T05:40:30;30.17;;;13.77;;
71154;SDS011;59375;53.216;5.728;2022-10-30T05:42:56;22.75;;;13.85;;
71154;SDS011;59375;53.216;5.728;2022-10-30T05:45:22;24.25;;;14.48;;
71154;SDS011;59375;53.216;5.728;2022-10-30T05:48:01;23.60;;;13.25;;
71154;SDS011;59375;53.216;5.728;2022-10-30T05:50:28;24.85;;;12.68;;
71154;SDS011;59375;53.216;5.728;2022-10-30T05:52:55;26.00;;;12.68;;
71154;SDS011;59375;53.216;5.728;2022-10-30T05:55:21;25.42;;;14.10;;
71154;SDS011;59375;53.216;5.728;2022-10-30T05:57:48;26.52;;;13.05;;
71154;SDS011;59375;53.216;5.728;2022-10-30T06:00:13;22.35;;;13.98;;
71154;SDS011;59375;53.216;5.728;2022-10-30T06:02:39;22.63;;;14.00;;
71154;SDS011;59375;53.216;5.728;2022-10-30T06:05:05;29.58;;;14.02;;
71154;SDS011;59375;53.216;5.728;2022-10-30T06:07:30;21.75;;;12.63;;
71154;SDS011;59375;53.216;5.728;2022-10-30T06:09:56;24.27;;;13.65;;
71154;SDS011;59375;53.216;5.728;2022-10-30T06:12:21;21.45;;;13.38;;
71154;SDS011;59375;53.216;5.728;2022-10-30T06:14:47;22.67;;;13.13;;
71154;SDS011;59375;53.216;5.728;2022-10-30T06:17:12;31.40;;;14.07;;
71154;SDS011;59375;53.216;5.728;2022-10-30T06:19:38;19.85;;;13.68;;
71154;SDS011;59375;53.216;5.728;2022-10-30T06:22:03;24.88;;;14.00;;
71154;SDS011;59375;53.216;5.728;2022-10-30T06:24:29;30.33;;;14.80;;
71154;SDS011;59375;53.216;5.728;2022-10-30T06:26:54;29.33;;;14.40;;
71154;SDS011;59375;53.216;5.728;2022-10-30T06:29:20;22.58;;;13.25;;
71154;SDS011;59375;53.216;5.728;2022-10-30T06:31:45;24.10;;;14.48;;
71154;SDS011;59375;53.216;5.728;2022-10-30T06:34:11;28.40;;;14.00;;
71154;SDS011;59375;53.216;5.728;2022-10-30T06:36:36;28.00;;;13.70;;
71154;SDS011;59375;53.216;5.728;2022-10-30T06:39:02;21.50;;;12.98;;
71154;SDS011;59375;53.216;5.728;2022-10-30T06:41:27;26.45;;;13.70;;
71154;SDS011;59375;53.216;5.728;2022-10-30T06:43:53;25.08;;;13.25;;
71154;SDS011;59375;53.216;5.728;2022-10-30T06:46:18;22.85;;;13.27;;
71154;SDS011;59375;53.216;5.728;2022-10-30T06:48:44;25.73;;;13.07;;
71154;SDS011;59375;53.216;5.728;2022-10-30T06:51:09;30.75;;;13.95;;
71154;SDS011;59375;53.216;5.728;2022-10-30T06:53:37;25.58;;;13.65;;
71154;SDS011;59375;53.216;5.728;2022-10-30T06:56:03;26.23;;;14.05;;
71154;SDS011;59375;53.216;5.728;2022-10-30T06:58:28;25.73;;;13.00;;
71154;SDS011;59375;53.216;5.728;2022-10-30T07:00:54;25.95;;;13.55;;
71154;SDS011;59375;53.216;5.728;2022-10-30T07:03:23;22.15;;;13.00;;
71154;SDS011;59375;53.216;5.728;2022-10-30T07:05:48;21.35;;;13.50;;
71154;SDS011;59375;53.216;5.728;2022-10-30T07:08:16;23.45;;;14.07;;
71154;SDS011;59375;53.216;5.728;2022-10-30T07:10:41;25.65;;;14.02;;
71154;SDS011;59375;53.216;5.728;2022-10-30T07:13:07;27.05;;;14.35;;
71154;SDS011;59375;53.216;5.728;2022-10-30T07:15:32;23.77;;;14.45;;
71154;SDS011;59375;53.216;5.728;2022-10-30T07:17:59;28.13;;;14.25;;
71154;SDS011;59375;53.216;5.728;2022-10-30T07:20:30;26.10;;;13.35;;
71154;SDS011;59375;53.216;5.728;2022-10-30T07:22:58;25.48;;;14.02;;
71154;SDS011;59375;53.216;5.728;2022-10-30T07:25:24;28.55;;;14.07;;
71154;SDS011;59375;53.216;5.728;2022-10-30T07:27:50;26.27;;;13.82;;
71154;SDS011;59375;53.216;5.728;2022-10-30T07:30:18;23.63;;;13.70;;
71154;SDS011;59375;53.216;5.728;2022-10-30T07:32:45;25.40;;;14.23;;
71154;SDS011;59375;53.216;5.728;2022-10-30T07:35:11;31.15;;;14.73;;
71154;SDS011;59375;53.216;5.728;2022-10-30T07:37:38;21.75;;;12.73;;
71154;SDS011;59375;53.216;5.728;2022-10-30T07:40:04;32.42;;;13.80;;
71154;SDS011;59375;53.216;5.728;2022-10-30T07:42:31;25.38;;;14.05;;
71154;SDS011;59375;53.216;5.728;2022-10-30T07:44:57;23.17;;;13.20;;
71154;SDS011;59375;53.216;5.728;2022-10-30T07:47:23;24.73;;;13.95;;
71154;SDS011;59375;53.216;5.728;2022-10-30T07:49:48;25.85;;;13.70;;
71154;SDS011;59375;53.216;5.728;2022-10-30T07:52:14;25.15;;;14.07;;
71154;SDS011;59375;53.216;5.728;2022-10-30T07:54:39;28.02;;;14.20;;
71154;SDS011;59375;53.216;5.728;2022-10-30T07:57:05;26.23;;;14.00;;
71154;SDS011;59375;53.216;5.728;2022-10-30T07:59:31;26.58;;;13.52;;
71154;SDS011;59375;53.216;5.728;2022-10-30T08:01:57;22.40;;;13.45;;
71154;SDS011;59375;53.216;5.728;2022-10-30T08:04:24;22.70;;;12.88;;
71154;SDS011;59375;53.216;5.728;2022-10-30T08:06:50;21.65;;;13.25;;
71154;SDS011;59375;53.216;5.728;2022-10-30T08:09:15;24.90;;;13.88;;
71154;SDS011;59375;53.216;5.728;2022-10-30T08:11:41;23.27;;;13.05;;
71154;SDS011;59375;53.216;5.728;2022-10-30T08:14:06;23.88;;;13.77;;
71154;SDS011;59375;53.216;5.728;2022-10-30T08:16:32;22.08;;;12.77;;
71154;SDS011;59375;53.216;5.728;2022-10-30T08:18:57;24.15;;;14.50;;
71154;SDS011;59375;53.216;5.728;2022-10-30T08:21:23;24.65;;;13.63;;
71154;SDS011;59375;53.216;5.728;2022-10-30T08:23:48;28.83;;;13.95;;
71154;SDS011;59375;53.216;5.728;2022-10-30T08:26:15;24.77;;;14.18;;
71154;SDS011;59375;53.216;5.728;2022-10-30T08:28:41;23.35;;;13.68;;
71154;SDS011;59375;53.216;5.728;2022-10-30T08:31:06;24.73;;;13.45;;
71154;SDS011;59375;53.216;5.728;2022-10-30T08:33:32;22.73;;;13.32;;
71154;SDS011;59375;53.216;5.728;2022-10-30T08:35:58;28.92;;;14.80;;
71154;SDS011;59375;53.216;5.728;2022-10-30T08:38:24;24.73;;;13.88;;
71154;SDS011;59375;53.216;5.728;2022-10-30T08:40:50;22.65;;;13.77;;
71154;SDS011;59375;53.216;5.728;2022-10-30T08:43:17;25.90;;;14.65;;
71154;SDS011;59375;53.216;5.728;2022-10-30T08:45:42;30.25;;;15.27;;
71154;SDS011;59375;53.216;5.728;2022-10-30T08:48:09;28.40;;;15.52;;
71154;SDS011;59375;53.216;5.728;2022-10-30T08:50:35;28.15;;;15.32;;
71154;SDS011;59375;53.216;5.728;2022-10-30T08:53:02;30.65;;;15.77;;
71154;SDS011;59375;53.216;5.728;2022-10-30T08:55:29;26.17;;;14.85;;
71154;SDS011;59375;53.216;5.728;2022-10-30T08:57:55;27.55;;;14.48;;
71154;SDS011;59375;53.216;5.728;2022-10-30T09:00:21;25.95;;;15.48;;
71154;SDS011;59375;53.216;5.728;2022-10-30T09:02:46;24.05;;;13.95;;
71154;SDS011;59375;53.216;5.728;2022-10-30T09:05:12;20.98;;;14.05;;
71154;SDS011;59375;53.216;5.728;2022-10-30T09:07:37;23.50;;;14.50;;
71154;SDS011;59375;53.216;5.728;2022-10-30T09:10:03;27.00;;;14.73;;
71154;SDS011;59375;53.216;5.728;2022-10-30T09:12:29;24.90;;;14.77;;
71154;SDS011;59375;53.216;5.728;2022-10-30T09:14:55;21.67;;;13.60;;
71154;SDS011;59375;53.216;5.728;2022-10-30T09:17:20;25.20;;;15.10;;
71154;SDS011;59375;53.216;5.728;2022-10-30T09:19:46;26.25;;;13.77;;
71154;SDS011;59375;53.216;5.728;2022-10-30T09:22:11;25.95;;;14.73;;
71154;SDS011;59375;53.216;5.728;2022-10-30T09:24:37;29.80;;;14.32;;
71154;SDS011;59375;53.216;5.728;2022-10-30T09:27:04;21.88;;;14.80;;
71154;SDS011;59375;53.216;5.728;2022-10-30T09:29:29;22.67;;;12.77;;
71154;SDS011;59375;53.216;5.728;2022-10-30T09:31:55;24.95;;;13.73;;
71154;SDS011;59375;53.216;5.728;2022-10-30T09:34:21;22.02;;;14.15;;
71154;SDS011;59375;53.216;5.728;2022-10-30T09:36:47;22.73;;;13.13;;
71154;SDS011;59375;53.216;5.728;2022-10-30T09:39:13;25.35;;;14.38;;
71154;SDS011;59375;53.216;5.728;2022-10-30T09:49:59;26.10;;;14.10;;
71154;SDS011;59375;53.216;5.728;2022-10-30T09:58:27;26.65;;;13.90;;
71154;SDS011;59375;53.216;5.728;2022-10-30T10:01:15;28.25;;;13.95;;
71154;SDS011;59375;53.216;5.728;2022-10-30T10:06:49;22.73;;;13.35;;
71154;SDS011;59375;53.216;5.728;2022-10-30T10:09:22;27.33;;;13.20;;
71154;SDS011;59375;53.216;5.728;2022-10-30T10:11:52;20.27;;;13.35;;
71154;SDS011;59375;53.216;5.728;2022-10-30T10:14:22;22.52;;;13.45;;
71154;SDS011;59375;53.216;5.728;2022-10-30T10:16:52;21.75;;;12.77;;
71154;SDS011;59375;53.216;5.728;2022-10-30T10:19:20;23.40;;;12.18;;
71154;SDS011;59375;53.216;5.728;2022-10-30T10:21:52;24.10;;;12.95;;
71154;SDS011;59375;53.216;5.728;2022-10-30T10:24:22;20.92;;;12.40;;
71154;SDS011;59375;53.216;5.728;2022-10-30T10:26:53;25.00;;;13.43;;
71154;SDS011;59375;53.216;5.728;2022-10-30T10:35:03;26.92;;;13.02;;
71154;SDS011;59375;53.216;5.728;2022-10-30T10:38:03;24.17;;;12.10;;
71154;SDS011;59375;53.216;5.728;2022-10-30T10:43:42;19.92;;;11.52;;
71154;SDS011;59375;53.216;5.728;2022-10-30T10:52:19;20.15;;;11.57;;
71154;SDS011;59375;53.216;5.728;2022-10-30T10:54:59;20.48;;;10.75;;
71154;SDS011;59375;53.216;5.728;2022-10-30T10:57:32;20.08;;;10.30;;
71154;SDS011;59375;53.216;5.728;2022-10-30T11:00:03;18.73;;;10.43;;
71154;SDS011;59375;53.216;5.728;2022-10-30T11:03:33;21.17;;;10.77;;
71154;SDS011;59375;53.216;5.728;2022-10-30T11:05:35;20.60;;;10.93;;
71154;SDS011;59375;53.216;5.728;2022-10-30T11:08:18;17.65;;;9.93;;
71154;SDS011;59375;53.216;5.728;2022-10-30T11:10:58;17.70;;;10.77;;
71154;SDS011;59375;53.216;5.728;2022-10-30T11:13:29;19.75;;;10.10;;
71154;SDS011;59375;53.216;5.728;2022-10-30T11:18:54;18.77;;;9.88;;
71154;SDS011;59375;53.216;5.728;2022-10-30T11:21:29;21.88;;;9.63;;
71154;SDS011;59375;53.216;5.728;2022-10-30T11:23:58;20.88;;;10.13;;
71154;SDS011;59375;53.216;5.728;2022-10-30T11:26:25;19.48;;;9.82;;
71154;SDS011;59375;53.216;5.728;2022-10-30T11:28:53;19.48;;;10.63;;
71154;SDS011;59375;53.216;5.728;2022-10-30T11:31:23;16.33;;;9.57;;
71154;SDS011;59375;53.216;5.728;2022-10-30T11:34:03;18.00;;;8.32;;
71154;SDS011;59375;53.216;5.728;2022-10-30T11:36:36;17.60;;;9.07;;
71154;SDS011;59375;53.216;5.728;2022-10-30T11:39:08;18.90;;;9.32;;
71154;SDS011;59375;53.216;5.728;2022-10-30T11:41:35;17.35;;;8.90;;
